createdAt,value
2022-12-11T00:01:45.377Z,80.92
2022-12-11T00:04:16.371Z,80.80
2022-12-11T00:06:50.454Z,81.22
2022-12-11T00:09:22.721Z,81.05
2022-12-11T00:11:53.914Z,80.88
2022-12-11T00:14:25.267Z,80.81
2022-12-11T00:16:54.919Z,80.97
2022-12-11T00:19:26.127Z,81.20
2022-12-11T00:21:57.581Z,81.12
2022-12-11T00:24:28.665Z,81.32
2022-12-11T00:26:59.706Z,81.10
2022-12-11T00:29:29.608Z,81.25
2022-12-11T00:32:00.642Z,81.57
2022-12-11T00:34:30.348Z,81.36
2022-12-11T00:37:02.200Z,81.33
2022-12-11T00:39:33.464Z,81.44
2022-12-11T00:42:04.618Z,81.40
2022-12-11T00:44:36.192Z,81.24
2022-12-11T00:47:07.414Z,81.06
2022-12-11T00:49:38.308Z,81.03
2022-12-11T00:52:10.993Z,81.06
2022-12-11T00:54:41.903Z,80.99
2022-12-11T00:57:12.955Z,81.09
2022-12-11T00:59:44.102Z,81.26
2022-12-11T01:02:13.928Z,81.51
2022-12-11T01:04:45.379Z,81.92
2022-12-11T01:07:16.356Z,81.86
2022-12-11T01:10:05.189Z,82.12
2022-12-11T01:12:39.501Z,82.40
2022-12-11T01:15:12.493Z,82.32
2022-12-11T01:17:43.650Z,82.21
2022-12-11T01:20:15.217Z,82.03
2022-12-11T01:22:44.605Z,81.63
2022-12-11T01:25:16.324Z,81.28
2022-12-11T01:27:48.046Z,81.38
2022-12-11T01:30:17.442Z,81.34
2022-12-11T01:32:49.192Z,81.00
2022-12-11T01:35:21.054Z,81.08
2022-12-11T01:37:52.038Z,81.06
2022-12-11T01:40:23.871Z,80.75
2022-12-11T01:42:54.870Z,80.81
2022-12-11T01:45:44.852Z,80.56
2022-12-11T01:48:19.902Z,80.13
2022-12-11T01:50:54.589Z,80.23
2022-12-11T01:53:29.183Z,80.25
2022-12-11T01:56:01.748Z,79.89
2022-12-11T01:58:36.471Z,80.12
2022-12-11T02:01:08.161Z,80.34
2022-12-11T02:03:39.263Z,80.56
2022-12-11T02:06:34.960Z,80.51
2022-12-11T02:09:08.567Z,80.10
2022-12-11T02:11:48.866Z,80.05
2022-12-11T02:14:29.793Z,80.19
2022-12-11T02:17:06.632Z,80.06
2022-12-11T02:19:57.242Z,80.32
2022-12-11T02:22:39.990Z,80.39
2022-12-11T02:25:20.274Z,80.26
2022-12-11T02:27:56.757Z,80.26
2022-12-11T02:30:28.063Z,80.44
2022-12-11T02:33:01.799Z,80.57
2022-12-11T02:35:39.063Z,80.47
2022-12-11T02:38:14.578Z,80.68
2022-12-11T02:40:50.015Z,80.68
2022-12-11T02:43:23.522Z,80.55
2022-12-11T02:45:55.369Z,80.30
2022-12-11T02:48:27.127Z,79.95
2022-12-11T02:51:00.702Z,80.11
2022-12-11T02:53:36.816Z,80.30
2022-12-11T02:56:14.168Z,80.17
2022-12-11T02:58:52.760Z,79.70
2022-12-11T03:01:28.559Z,79.85
2022-12-11T03:04:00.805Z,80.09
2022-12-11T03:06:37.380Z,80.38
2022-12-11T03:09:08.686Z,80.69
2022-12-11T03:11:39.632Z,81.09
2022-12-11T03:14:11.500Z,81.20
2022-12-11T03:16:51.722Z,81.22
2022-12-11T03:19:32.243Z,81.14
2022-12-11T03:22:10.659Z,81.29
2022-12-11T03:24:46.888Z,81.44
2022-12-11T03:27:25.935Z,81.40
2022-12-11T03:30:00.483Z,81.58
2022-12-11T03:32:37.843Z,81.67
2022-12-11T03:35:15.134Z,81.86
2022-12-11T03:37:49.132Z,81.58
2022-12-11T03:40:23.350Z,81.82
2022-12-11T03:42:57.118Z,81.90
2022-12-11T03:45:30.701Z,82.06
2022-12-11T03:48:03.788Z,82.13
2022-12-11T03:50:36.655Z,82.09
2022-12-11T03:53:08.234Z,82.09
2022-12-11T03:55:40.834Z,82.08
2022-12-11T03:58:11.964Z,82.05
2022-12-11T04:00:43.046Z,82.30
2022-12-11T04:03:14.535Z,82.34
2022-12-11T04:05:51.171Z,82.45
2022-12-11T04:08:23.314Z,82.34
2022-12-11T04:11:15.124Z,82.41
2022-12-11T04:13:46.105Z,82.56
2022-12-11T04:16:17.140Z,82.51
2022-12-11T04:19:05.744Z,82.73
2022-12-11T04:21:54.423Z,82.61
2022-12-11T04:24:25.591Z,82.59
2022-12-11T04:26:56.491Z,82.68
2022-12-11T04:29:27.616Z,82.56
2022-12-11T04:31:58.939Z,82.56
2022-12-11T04:34:30.287Z,82.56
2022-12-11T04:37:01.488Z,82.60
2022-12-11T04:39:32.386Z,82.64
2022-12-11T04:42:03.268Z,82.61
2022-12-11T04:44:34.768Z,82.59
2022-12-11T04:47:05.793Z,82.63
2022-12-11T04:49:36.517Z,82.62
2022-12-11T04:52:07.802Z,82.67
2022-12-11T04:54:39.345Z,82.56
2022-12-11T04:57:10.577Z,82.45
2022-12-11T04:59:41.714Z,82.41
2022-12-11T05:02:13.025Z,82.68
2022-12-11T05:04:44.815Z,82.74
2022-12-11T05:07:15.715Z,82.90
2022-12-11T05:09:46.988Z,82.77
2022-12-11T05:12:18.212Z,83.02
2022-12-11T05:14:52.295Z,82.75
2022-12-11T05:17:23.485Z,82.66
2022-12-11T05:19:54.836Z,82.72
2022-12-11T05:22:25.760Z,82.98
2022-12-11T05:24:56.712Z,82.88
2022-12-11T05:27:27.977Z,82.89
2022-12-11T05:29:59.735Z,82.81
2022-12-11T05:32:31.160Z,83.06
2022-12-11T05:35:02.000Z,83.00
2022-12-11T05:37:35.695Z,82.99
2022-12-11T05:40:07.599Z,83.05
2022-12-11T05:42:38.509Z,83.02
2022-12-11T05:45:11.297Z,83.08
2022-12-11T05:47:42.461Z,82.86
2022-12-11T05:50:13.697Z,82.93
2022-12-11T05:52:44.924Z,83.05
2022-12-11T05:55:15.925Z,82.96
2022-12-11T05:57:46.902Z,82.93
2022-12-11T06:00:18.061Z,82.82
2022-12-11T06:02:49.292Z,83.03
2022-12-11T06:05:20.490Z,82.99
2022-12-11T06:07:51.593Z,82.84
2022-12-11T06:10:22.773Z,83.05
2022-12-11T06:12:53.803Z,82.94
2022-12-11T06:15:24.938Z,82.95
2022-12-11T06:17:56.411Z,82.91
2022-12-11T06:20:27.488Z,83.08
2022-12-11T06:22:58.735Z,83.20
2022-12-11T06:25:30.608Z,83.11
2022-12-11T06:28:02.113Z,83.08
2022-12-11T06:30:38.937Z,83.09
2022-12-11T06:33:10.665Z,83.12
2022-12-11T06:35:42.519Z,82.96
2022-12-11T06:38:14.069Z,82.67
2022-12-11T06:40:45.520Z,82.56
2022-12-11T06:43:15.124Z,82.34
2022-12-11T06:45:46.176Z,82.37
2022-12-11T06:48:17.651Z,82.56
2022-12-11T06:50:48.686Z,82.66
2022-12-11T06:53:19.810Z,82.53
2022-12-11T06:55:51.127Z,82.52
2022-12-11T06:58:20.784Z,82.52
2022-12-11T07:00:51.560Z,82.45
2022-12-11T07:03:22.644Z,82.42
2022-12-11T07:05:53.829Z,82.39
2022-12-11T07:08:24.890Z,82.49
2022-12-11T07:10:55.822Z,82.37
2022-12-11T07:13:26.935Z,82.43
2022-12-11T07:16:02.030Z,81.89
2022-12-11T07:18:33.522Z,82.13
2022-12-11T07:21:04.748Z,81.90
2022-12-11T07:23:36.807Z,81.84
2022-12-11T07:26:12.486Z,82.09
2022-12-11T07:28:44.077Z,81.85
2022-12-11T07:31:17.366Z,82.14
2022-12-11T07:33:48.690Z,82.33
2022-12-11T07:36:19.769Z,82.30
2022-12-11T07:38:50.953Z,82.53
2022-12-11T07:41:23.223Z,82.24
2022-12-11T07:43:54.247Z,82.35
2022-12-11T07:46:27.874Z,82.15
2022-12-11T07:49:01.051Z,82.38
2022-12-11T07:51:35.543Z,82.29
2022-12-11T07:54:10.745Z,82.18
2022-12-11T07:56:43.947Z,82.36
2022-12-11T07:59:16.734Z,82.46
2022-12-11T08:01:47.841Z,82.50
2022-12-11T08:04:18.989Z,82.58
2022-12-11T08:06:49.958Z,82.62
2022-12-11T08:09:22.813Z,82.63
2022-12-11T08:11:54.625Z,82.55
2022-12-11T08:14:25.648Z,82.38
2022-12-11T08:16:57.572Z,82.45
2022-12-11T08:19:29.327Z,82.05
2022-12-11T08:22:00.343Z,82.36
2022-12-11T08:24:31.715Z,82.55
2022-12-11T08:27:01.327Z,82.37
2022-12-11T08:29:32.446Z,82.56
2022-12-11T08:32:06.404Z,82.34
2022-12-11T08:34:41.804Z,82.34
2022-12-11T08:37:13.754Z,82.20
2022-12-11T08:39:47.010Z,82.05
2022-12-11T08:42:18.175Z,82.04
2022-12-11T08:44:49.156Z,82.19
2022-12-11T08:47:20.168Z,82.18
2022-12-11T08:49:51.521Z,81.94
2022-12-11T08:52:23.108Z,81.94
2022-12-11T08:54:54.669Z,81.85
2022-12-11T08:57:25.667Z,81.91
2022-12-11T08:59:56.872Z,82.12
2022-12-11T09:02:28.333Z,81.95
2022-12-11T09:04:57.885Z,82.08
2022-12-11T09:07:28.811Z,81.52
2022-12-11T09:09:59.706Z,81.62
2022-12-11T09:12:31.269Z,81.41
2022-12-11T09:15:00.538Z,80.78
2022-12-11T09:17:31.732Z,81.19
2022-12-11T09:20:02.927Z,81.00
2022-12-11T09:22:34.677Z,80.85
2022-12-11T09:25:06.105Z,80.74
2022-12-11T09:27:36.649Z,80.25
2022-12-11T09:30:09.518Z,80.38
2022-12-11T09:32:40.992Z,80.15
2022-12-11T09:35:12.968Z,79.07
2022-12-11T09:37:44.262Z,78.99
2022-12-11T09:40:16.260Z,79.55
2022-12-11T09:42:55.670Z,79.76
2022-12-11T09:45:27.066Z,79.58
2022-12-11T09:47:59.402Z,79.33
2022-12-11T09:50:32.998Z,79.50
2022-12-11T09:53:12.641Z,79.13
2022-12-11T09:55:51.187Z,79.50
2022-12-11T09:58:30.787Z,79.48
2022-12-11T10:01:10.081Z,79.21
2022-12-11T10:04:08.450Z,79.06
2022-12-11T10:06:44.272Z,78.62
2022-12-11T10:09:21.082Z,78.10
2022-12-11T10:12:06.649Z,78.53
2022-12-11T10:14:54.328Z,78.20
2022-12-11T10:17:29.706Z,78.22
2022-12-11T10:20:09.035Z,78.19
2022-12-11T10:22:40.171Z,77.97
2022-12-11T10:25:23.078Z,77.42
2022-12-11T10:27:54.127Z,76.58
2022-12-11T10:30:30.463Z,76.95
2022-12-11T10:33:15.753Z,76.55
2022-12-11T10:35:49.615Z,76.99
2022-12-11T10:38:27.617Z,76.88
2022-12-11T10:41:01.929Z,76.82
2022-12-11T10:43:37.615Z,76.75
2022-12-11T10:46:16.450Z,76.31
2022-12-11T10:48:53.303Z,76.39
2022-12-11T10:51:26.118Z,76.78
2022-12-11T10:54:07.958Z,76.79
2022-12-11T10:56:40.404Z,76.04
2022-12-11T10:59:24.410Z,75.66
2022-12-11T11:01:56.404Z,75.54
2022-12-11T11:04:33.107Z,75.34
2022-12-11T11:07:14.912Z,74.75
2022-12-11T11:09:46.164Z,73.45
2022-12-11T11:12:27.335Z,74.54
2022-12-11T11:15:06.953Z,74.72
2022-12-11T11:17:54.256Z,74.40
2022-12-11T11:20:28.481Z,74.03
2022-12-11T11:23:01.865Z,73.32
2022-12-11T11:25:34.922Z,74.04
2022-12-11T11:28:08.059Z,73.72
2022-12-11T11:30:42.690Z,73.52
2022-12-11T11:33:19.262Z,73.95
2022-12-11T11:35:57.705Z,73.53
2022-12-11T11:38:32.929Z,73.74
2022-12-11T11:41:15.127Z,73.66
2022-12-11T11:43:49.093Z,74.01
2022-12-11T11:46:27.742Z,74.20
2022-12-11T11:49:08.767Z,74.05
2022-12-11T11:51:44.587Z,73.65
2022-12-11T11:54:26.436Z,73.43
2022-12-11T11:57:00.189Z,72.81
2022-12-11T11:59:37.550Z,73.07
2022-12-11T12:02:17.700Z,72.94
2022-12-11T12:04:51.378Z,72.75
2022-12-11T12:07:34.804Z,72.49
2022-12-11T12:10:16.124Z,71.62
2022-12-11T12:12:55.457Z,69.60
2022-12-11T12:15:37.863Z,69.72
2022-12-11T12:18:21.310Z,70.32
2022-12-11T12:21:03.647Z,69.62
2022-12-11T12:23:57.170Z,69.02
2022-12-11T12:26:30.694Z,68.80
2022-12-11T12:29:12.410Z,68.63
2022-12-11T12:32:01.319Z,68.64
2022-12-11T12:34:46.052Z,68.87
2022-12-11T12:37:26.245Z,68.69
2022-12-11T12:40:09.631Z,69.09
2022-12-11T12:42:50.266Z,69.12
2022-12-11T12:45:30.598Z,69.36
2022-12-11T12:48:03.077Z,69.95
2022-12-11T12:50:43.130Z,69.86
2022-12-11T12:53:18.671Z,69.68
2022-12-11T12:55:51.464Z,69.63
2022-12-11T12:58:40.822Z,70.25
2022-12-11T13:01:16.396Z,70.83
2022-12-11T13:03:57.484Z,70.92
2022-12-11T13:06:38.271Z,71.43
2022-12-11T13:09:19.790Z,71.46
2022-12-11T13:11:54.598Z,71.62
2022-12-11T13:14:30.336Z,72.02
2022-12-11T13:17:27.540Z,72.07
2022-12-11T13:20:19.091Z,72.22
2022-12-11T13:22:57.404Z,72.28
2022-12-11T13:25:34.392Z,72.29
2022-12-11T13:28:21.900Z,72.53
2022-12-11T13:31:30.110Z,72.75
2022-12-11T13:34:15.237Z,72.83
2022-12-11T13:36:49.856Z,72.63
2022-12-11T13:39:24.089Z,72.62
2022-12-11T13:41:58.754Z,72.68
2022-12-11T13:44:32.972Z,72.83
2022-12-11T13:47:07.199Z,72.92
2022-12-11T13:49:41.772Z,72.94
2022-12-11T13:52:22.319Z,72.89
2022-12-11T13:54:55.835Z,73.37
2022-12-11T13:57:28.541Z,73.13
2022-12-11T14:00:00.990Z,73.45
2022-12-11T14:02:35.199Z,73.53
2022-12-11T14:05:11.162Z,73.52
2022-12-11T14:07:48.068Z,73.26
2022-12-11T14:10:22.117Z,73.80
2022-12-11T14:12:58.377Z,73.90
2022-12-11T14:15:31.959Z,73.68
2022-12-11T14:18:05.464Z,73.88
2022-12-11T14:20:37.154Z,74.06
2022-12-11T14:23:16.208Z,74.31
2022-12-11T14:25:55.613Z,74.64
2022-12-11T14:28:28.558Z,74.88
2022-12-11T14:31:02.763Z,74.97
2022-12-11T14:33:38.294Z,74.87
2022-12-11T14:36:11.037Z,75.15
2022-12-11T14:38:47.594Z,75.31
2022-12-11T14:41:22.818Z,75.33
2022-12-11T14:43:58.274Z,75.40
2022-12-11T14:46:38.419Z,75.33
2022-12-11T14:49:18.323Z,75.58
2022-12-11T14:51:50.394Z,75.96
2022-12-11T14:54:32.847Z,76.51
2022-12-11T14:57:07.171Z,76.42
2022-12-11T14:59:45.735Z,76.31
2022-12-11T15:02:30.104Z,75.89
2022-12-11T15:05:12.209Z,75.26
2022-12-11T15:07:45.172Z,75.45
2022-12-11T15:10:31.380Z,75.35
2022-12-11T15:13:02.709Z,74.70
2022-12-11T15:15:47.629Z,74.61
2022-12-11T15:18:23.234Z,74.10
2022-12-11T15:20:57.714Z,74.50
2022-12-11T15:23:28.854Z,74.71
2022-12-11T15:26:02.957Z,74.50
2022-12-11T15:28:36.746Z,74.48
2022-12-11T15:31:25.079Z,75.15
2022-12-11T15:33:56.609Z,75.00
2022-12-11T15:36:27.224Z,75.36
2022-12-11T15:38:58.736Z,75.19
2022-12-11T15:41:33.347Z,75.19
2022-12-11T15:44:05.880Z,75.36
2022-12-11T15:46:39.395Z,75.60
2022-12-11T15:49:14.305Z,75.61
2022-12-11T15:51:45.381Z,75.74
2022-12-11T15:54:16.454Z,75.91
2022-12-11T15:56:47.487Z,75.92
2022-12-11T15:59:19.191Z,75.91
2022-12-11T16:01:50.181Z,75.95
2022-12-11T16:04:21.225Z,75.74
2022-12-11T16:06:55.301Z,76.14
2022-12-11T16:09:26.467Z,76.35
2022-12-11T16:11:57.542Z,76.35
2022-12-11T16:14:28.789Z,76.58
2022-12-11T16:16:59.830Z,76.79
2022-12-11T16:19:30.919Z,76.83
2022-12-11T16:22:02.384Z,76.68
2022-12-11T16:24:33.587Z,76.87
2022-12-11T16:27:05.996Z,76.82
2022-12-11T16:29:38.735Z,76.65
2022-12-11T16:32:10.146Z,76.69
2022-12-11T16:34:41.233Z,76.46
2022-12-11T16:37:13.061Z,76.45
2022-12-11T16:39:46.062Z,76.45
2022-12-11T16:42:17.019Z,76.39
2022-12-11T16:44:48.510Z,76.45
2022-12-11T16:47:19.745Z,76.25
2022-12-11T16:49:50.768Z,76.01
2022-12-11T16:52:22.442Z,75.90
2022-12-11T16:54:53.578Z,75.86
2022-12-11T16:57:24.775Z,75.74
2022-12-11T16:59:55.868Z,75.55
2022-12-11T17:02:26.986Z,75.72
2022-12-11T17:04:58.146Z,75.79
2022-12-11T17:07:29.152Z,75.72
2022-12-11T17:10:00.916Z,75.71
2022-12-11T17:12:32.021Z,75.75
2022-12-11T17:15:03.072Z,75.75
2022-12-11T17:17:34.522Z,75.84
2022-12-11T17:20:06.178Z,75.87
2022-12-11T17:22:37.780Z,75.76
2022-12-11T17:25:09.932Z,75.75
2022-12-11T17:27:40.998Z,75.82
2022-12-11T17:30:14.308Z,75.78
2022-12-11T17:32:47.839Z,75.43
2022-12-11T17:35:19.274Z,75.62
2022-12-11T17:37:50.610Z,75.86
2022-12-11T17:40:23.055Z,75.93
2022-12-11T17:42:53.929Z,75.90
2022-12-11T17:45:24.948Z,76.00
2022-12-11T17:47:56.374Z,76.13
2022-12-11T17:50:29.559Z,76.19
2022-12-11T17:53:00.750Z,76.40
2022-12-11T17:55:31.723Z,76.43
2022-12-11T17:58:02.839Z,76.65
2022-12-11T18:00:34.080Z,76.57
2022-12-11T18:03:05.129Z,76.72
2022-12-11T18:05:37.282Z,76.82
2022-12-11T18:08:08.948Z,76.82
2022-12-11T18:10:39.944Z,76.85
2022-12-11T18:13:11.358Z,77.07
2022-12-11T18:15:42.527Z,77.11
2022-12-11T18:18:13.813Z,77.33
2022-12-11T18:20:44.786Z,77.33
2022-12-11T18:23:15.725Z,77.44
2022-12-11T18:25:47.035Z,77.53
2022-12-11T18:28:18.339Z,77.64
2022-12-11T18:30:49.966Z,77.56
2022-12-11T18:33:19.422Z,77.53
2022-12-11T18:35:51.742Z,77.33
2022-12-11T18:38:22.929Z,77.47
2022-12-11T18:40:53.978Z,77.42
2022-12-11T18:43:24.763Z,77.34
2022-12-11T18:45:55.623Z,77.36
2022-12-11T18:48:26.401Z,77.33
2022-12-11T18:50:57.609Z,77.52
2022-12-11T18:53:28.892Z,77.26
2022-12-11T18:56:00.742Z,77.16
2022-12-11T18:58:31.900Z,76.47
2022-12-11T19:01:09.023Z,76.56
2022-12-11T19:03:40.380Z,76.71
2022-12-11T19:06:14.872Z,76.69
2022-12-11T19:08:46.382Z,76.70
2022-12-11T19:11:18.770Z,76.43
2022-12-11T19:13:50.173Z,76.27
2022-12-11T19:16:22.929Z,76.20
2022-12-11T19:18:54.184Z,76.35
2022-12-11T19:21:25.379Z,76.27
2022-12-11T19:23:57.291Z,76.30
2022-12-11T19:26:28.847Z,76.25
2022-12-11T19:29:00.361Z,76.18
2022-12-11T19:31:33.715Z,76.27
2022-12-11T19:34:05.081Z,76.47
2022-12-11T19:36:37.298Z,76.19
2022-12-11T19:39:12.978Z,76.02
2022-12-11T19:41:45.142Z,76.06
2022-12-11T19:44:14.785Z,76.14
2022-12-11T19:46:45.851Z,76.29
2022-12-11T19:49:17.151Z,76.17
2022-12-11T19:51:48.584Z,76.22
2022-12-11T19:54:20.643Z,76.41
2022-12-11T19:56:52.405Z,76.16
2022-12-11T19:59:23.350Z,76.29
2022-12-11T20:01:54.423Z,76.47
2022-12-11T20:04:25.463Z,76.67
2022-12-11T20:06:56.745Z,76.61
2022-12-11T20:09:28.325Z,76.22
2022-12-11T20:11:57.954Z,76.30
2022-12-11T20:14:29.126Z,76.42
2022-12-11T20:17:15.752Z,76.50
2022-12-11T20:19:46.967Z,76.58
2022-12-11T20:22:17.844Z,76.65
2022-12-11T20:24:48.712Z,76.72
2022-12-11T20:27:19.883Z,76.63
2022-12-11T20:29:50.949Z,76.52
2022-12-11T20:32:25.835Z,76.78
2022-12-11T20:34:59.163Z,76.85
2022-12-11T20:37:30.120Z,77.07
2022-12-11T20:40:05.077Z,77.24
2022-12-11T20:42:36.641Z,76.95
2022-12-11T20:45:06.975Z,76.93
2022-12-11T20:47:38.045Z,77.03
2022-12-11T20:50:11.179Z,77.06
2022-12-11T20:52:42.225Z,77.16
2022-12-11T20:55:13.935Z,77.24
2022-12-11T20:57:45.535Z,77.55
2022-12-11T21:00:20.137Z,77.54
2022-12-11T21:02:52.380Z,77.51
2022-12-11T21:05:24.005Z,77.47
2022-12-11T21:07:57.311Z,77.57
2022-12-11T21:10:28.402Z,77.59
2022-12-11T21:12:59.346Z,77.75
2022-12-11T21:15:30.625Z,77.72
2022-12-11T21:18:01.701Z,77.73
2022-12-11T21:20:32.573Z,77.71
2022-12-11T21:23:04.253Z,77.73
2022-12-11T21:25:33.657Z,77.88
2022-12-11T21:28:05.713Z,77.83
2022-12-11T21:30:40.090Z,77.79
2022-12-11T21:33:11.269Z,77.70
2022-12-11T21:35:42.378Z,77.52
2022-12-11T21:38:13.708Z,77.54
2022-12-11T21:40:44.573Z,77.23
2022-12-11T21:43:15.517Z,77.34
2022-12-11T21:46:02.486Z,77.63
2022-12-11T21:48:33.829Z,77.63
2022-12-11T21:51:10.781Z,77.48
2022-12-11T21:53:43.714Z,77.67
2022-12-11T21:56:18.065Z,77.64
2022-12-11T21:58:50.647Z,77.72
2022-12-11T22:01:24.576Z,77.72
2022-12-11T22:03:56.234Z,77.73
2022-12-11T22:06:27.002Z,77.83
2022-12-11T22:08:58.129Z,77.93
2022-12-11T22:11:31.447Z,78.06
2022-12-11T22:14:02.728Z,77.95
2022-12-11T22:16:34.160Z,77.97
2022-12-11T22:19:05.122Z,78.04
2022-12-11T22:21:36.534Z,78.10
2022-12-11T22:24:08.282Z,77.98
2022-12-11T22:26:40.116Z,77.90
2022-12-11T22:29:11.218Z,77.89
2022-12-11T22:31:42.260Z,77.96
2022-12-11T22:34:13.150Z,77.99
2022-12-11T22:36:44.484Z,78.13
2022-12-11T22:39:15.541Z,78.08
2022-12-11T22:41:46.708Z,78.04
2022-12-11T22:44:20.070Z,78.04
2022-12-11T22:46:51.297Z,78.07
2022-12-11T22:49:22.329Z,77.95
2022-12-11T22:51:53.331Z,78.00
2022-12-11T22:54:24.615Z,77.82
2022-12-11T22:56:55.938Z,77.73
2022-12-11T22:59:27.521Z,77.61
2022-12-11T23:01:58.448Z,77.72
2022-12-11T23:04:29.322Z,77.72
2022-12-11T23:07:00.527Z,77.51
2022-12-11T23:09:31.538Z,77.46
2022-12-11T23:12:02.996Z,77.57
2022-12-11T23:14:33.907Z,77.54
2022-12-11T23:17:05.031Z,77.61
2022-12-11T23:19:36.397Z,77.72
2022-12-11T23:22:07.426Z,77.75
2022-12-11T23:24:38.627Z,77.49
2022-12-11T23:27:09.734Z,77.28
2022-12-11T23:29:40.757Z,77.30
2022-12-11T23:32:11.815Z,77.27
2022-12-11T23:34:42.671Z,77.34
2022-12-11T23:37:14.146Z,77.27
2022-12-11T23:39:45.079Z,77.49
2022-12-11T23:42:16.227Z,77.49
2022-12-11T23:44:47.705Z,77.60
2022-12-11T23:47:18.660Z,77.73
2022-12-11T23:49:49.648Z,77.87
2022-12-11T23:52:22.671Z,78.00
2022-12-11T23:54:55.374Z,78.08
2022-12-11T23:57:26.384Z,78.08
2022-12-11T23:59:57.647Z,77.99
